Time;durP1;ratioP1;P1;durP2;ratioP2;P2;SDS_P1;SDS_P2;PMS_P1;PMS_P2;Temp;Humidity;BMP_temperature;BMP_pressure;BME280_temperature;BME280_humidity;BME280_pressure;Samples;Min_cycle;Max_cycle;Signal;HPM_P1;HPM_P2
2021/05/29 00:02:18;;;;;;;11.63;7.85;;;9.90;99.90;;;;;;5083928;28;20086;-65
2021/05/29 00:04:44;;;;;;;11.25;8.65;;;9.90;99.90;;;;;;5087750;28;20447;-65
2021/05/29 00:07:10;;;;;;;11.48;7.50;;;9.90;99.90;;;;;;5071011;28;20067;-65
2021/05/29 00:09:37;;;;;;;9.75;7.80;;;9.90;99.90;;;;;;5099272;28;20052;-65
2021/05/29 00:12:05;;;;;;;10.73;8.00;;;9.90;99.90;;;;;;5077067;28;20087;-65
2021/05/29 00:14:33;;;;;;;9.30;6.60;;;9.90;99.90;;;;;;5087946;28;20048;-64
2021/05/29 00:16:59;;;;;;;10.63;7.30;;;10.00;99.90;;;;;;5087351;28;20611;-65
2021/05/29 00:19:26;;;;;;;8.57;6.90;;;9.90;99.90;;;;;;5087359;28;20064;-65
2021/05/29 00:21:51;;;;;;;6.90;6.20;;;9.90;99.90;;;;;;5087036;28;20048;-65
2021/05/29 00:24:17;;;;;;;8.98;7.45;;;9.80;99.90;;;;;;5085337;28;20037;-65
2021/05/29 00:26:43;;;;;;;11.13;7.85;;;9.70;99.90;;;;;;5088013;28;20068;-65
2021/05/29 00:29:09;;;;;;;8.45;7.32;;;9.60;99.90;;;;;;5087084;28;20047;-65
2021/05/29 00:31:35;;;;;;;9.07;7.22;;;9.50;99.90;;;;;;5087128;28;20037;-65
2021/05/29 00:34:01;;;;;;;10.40;7.57;;;9.40;99.90;;;;;;5087804;28;20100;-65
2021/05/29 00:36:26;;;;;;;11.45;8.52;;;9.40;99.90;;;;;;5086742;28;20052;-65
2021/05/29 00:38:52;;;;;;;12.32;9.40;;;9.40;99.90;;;;;;5086873;28;20048;-63
2021/05/29 00:41:18;;;;;;;14.70;9.77;;;9.40;99.90;;;;;;5087159;28;20040;-65
2021/05/29 00:43:45;;;;;;;12.65;9.27;;;9.30;99.90;;;;;;5087004;28;20131;-65
2021/05/29 00:46:12;;;;;;;5.20;3.35;;;9.40;99.90;;;;;;5055749;28;20041;-65
2021/05/29 00:48:38;;;;;;;9.05;5.95;;;9.40;99.90;;;;;;5086635;28;20051;-66
2021/05/29 00:51:05;;;;;;;13.88;9.27;;;9.50;99.90;;;;;;5086802;28;20049;-66
2021/05/29 00:53:33;;;;;;;14.65;9.52;;;9.50;99.90;;;;;;5081848;28;20480;-65
2021/05/29 00:56:01;;;;;;;11.80;8.80;;;9.50;99.90;;;;;;5085653;28;20048;-65
2021/05/29 00:58:28;;;;;;;12.75;9.15;;;9.50;99.90;;;;;;5067529;28;20125;-65
2021/05/29 01:00:54;;;;;;;9.77;8.68;;;9.60;99.90;;;;;;5082543;28;20083;-66
2021/05/29 01:03:20;;;;;;;11.23;8.75;;;9.60;99.90;;;;;;5087807;28;20096;-65
2021/05/29 01:05:47;;;;;;;16.65;10.63;;;9.70;99.90;;;;;;5087415;28;20048;-66
2021/05/29 01:08:14;;;;;;;13.65;9.60;;;9.70;99.90;;;;;;5090566;28;20063;-66
2021/05/29 01:10:40;;;;;;;11.27;9.63;;;9.80;99.90;;;;;;5086885;28;20045;-66
2021/05/29 01:13:09;;;;;;;14.43;10.48;;;9.70;99.90;;;;;;5074393;28;20105;-66
2021/05/29 01:15:39;;;;;;;11.52;8.85;;;9.70;99.90;;;;;;5085671;28;20048;-66
2021/05/29 01:18:08;;;;;;;11.93;9.65;;;9.70;99.90;;;;;;5086883;28;20049;-65
2021/05/29 01:20:35;;;;;;;10.80;8.50;;;9.80;99.90;;;;;;5086235;28;20052;-66
2021/05/29 01:23:01;;;;;;;11.95;9.18;;;9.70;99.90;;;;;;5084221;28;20070;-65
2021/05/29 01:25:32;;;;;;;11.73;8.52;;;9.60;99.90;;;;;;5081149;28;20048;-65
2021/05/29 01:27:58;;;;;;;11.68;9.10;;;9.60;99.90;;;;;;5086596;28;20082;-65
2021/05/29 01:30:24;;;;;;;13.50;10.48;;;9.60;99.90;;;;;;5086284;28;20045;-66
2021/05/29 01:32:50;;;;;;;14.35;10.07;;;9.60;99.90;;;;;;5085929;28;20044;-66
2021/05/29 01:35:16;;;;;;;16.88;10.55;;;9.60;99.90;;;;;;5085706;28;20488;-65
2021/05/29 01:37:43;;;;;;;12.52;9.77;;;9.70;99.90;;;;;;5086144;28;20064;-65
2021/05/29 01:40:09;;;;;;;13.23;10.52;;;9.80;99.90;;;;;;5086388;28;20504;-64
2021/05/29 01:42:37;;;;;;;15.73;11.18;;;9.90;99.90;;;;;;5085712;28;20059;-65
2021/05/29 01:45:08;;;;;;;18.65;11.50;;;10.00;99.90;;;;;;5085742;28;20055;-65
2021/05/29 01:47:41;;;;;;;17.08;12.10;;;10.10;99.90;;;;;;5085997;28;20051;-65
2021/05/29 01:50:07;;;;;;;16.40;12.95;;;10.10;99.90;;;;;;5085628;28;20565;-65
2021/05/29 01:52:44;;;;;;;16.90;12.15;;;10.10;99.90;;;;;;5081135;28;20041;-64
2021/05/29 01:55:10;;;;;;;24.15;13.45;;;10.00;99.90;;;;;;5083331;28;20036;-65
2021/05/29 01:57:35;;;;;;;20.55;13.77;;;10.00;99.90;;;;;;5085402;28;20421;-65
2021/05/29 02:00:03;;;;;;;19.75;13.52;;;10.00;99.90;;;;;;5082143;28;20039;-65
2021/05/29 02:02:28;;;;;;;19.15;13.80;;;10.00;99.90;;;;;;5085600;28;20041;-64
2021/05/29 02:04:54;;;;;;;22.42;14.38;;;9.90;99.90;;;;;;5068570;28;20128;-65
2021/05/29 02:07:23;;;;;;;19.38;13.38;;;9.90;99.90;;;;;;5089681;28;20431;-65
2021/05/29 02:09:49;;;;;;;19.60;13.18;;;10.00;99.90;;;;;;5088949;28;20071;-65
2021/05/29 02:12:15;;;;;;;19.20;13.13;;;10.00;99.90;;;;;;5073820;28;20110;-65
2021/05/29 02:14:42;;;;;;;19.42;13.15;;;10.00;99.90;;;;;;5085067;28;20040;-65
2021/05/29 02:17:08;;;;;;;17.88;13.20;;;10.10;99.90;;;;;;5085805;28;20485;-65
2021/05/29 02:19:34;;;;;;;16.58;12.55;;;10.10;99.90;;;;;;5085032;28;20045;-66
2021/05/29 02:22:01;;;;;;;20.48;14.35;;;10.10;99.90;;;;;;5084988;28;20127;-66
2021/05/29 02:24:26;;;;;;;17.05;13.15;;;10.10;99.90;;;;;;5079628;28;20044;-66
2021/05/29 02:26:52;;;;;;;21.58;13.90;;;10.20;99.90;;;;;;5084573;28;20048;-66
2021/05/29 02:29:18;;;;;;;19.55;12.80;;;10.20;99.90;;;;;;5084823;28;20405;-65
2021/05/29 02:31:44;;;;;;;21.00;13.20;;;10.10;99.90;;;;;;5084851;28;20055;-65
2021/05/29 02:34:11;;;;;;;18.02;13.00;;;10.10;99.90;;;;;;5084916;28;20044;-64
2021/05/29 02:36:37;;;;;;;19.80;12.85;;;10.10;99.90;;;;;;5084508;28;20052;-65
2021/05/29 02:39:04;;;;;;;19.13;12.40;;;10.10;99.90;;;;;;5066903;28;20283;-65
2021/05/29 02:41:30;;;;;;;21.73;14.77;;;10.20;99.90;;;;;;5084913;28;20100;-66
2021/05/29 02:43:56;;;;;;;15.77;13.05;;;10.10;99.90;;;;;;5078369;28;20071;-66
2021/05/29 02:46:22;;;;;;;18.75;13.07;;;10.10;99.90;;;;;;5077427;28;20108;-66
2021/05/29 02:48:47;;;;;;;18.90;13.88;;;10.00;99.90;;;;;;5084344;28;20045;-65
2021/05/29 02:51:13;;;;;;;16.40;12.73;;;10.00;99.90;;;;;;5084823;28;20044;-66
2021/05/29 02:53:39;;;;;;;24.40;14.80;;;10.00;99.90;;;;;;5076057;28;20052;-66
2021/05/29 02:56:05;;;;;;;22.83;15.27;;;10.00;99.90;;;;;;5085018;28;20056;-65
2021/05/29 02:58:31;;;;;;;19.92;14.27;;;10.10;99.90;;;;;;5081668;28;20456;-66
2021/05/29 03:00:56;;;;;;;22.85;14.88;;;10.00;99.90;;;;;;5084172;28;20048;-65
2021/05/29 03:03:22;;;;;;;24.52;15.88;;;10.00;99.90;;;;;;5084686;28;20045;-66
2021/05/29 03:05:49;;;;;;;23.00;16.17;;;10.10;99.90;;;;;;5084548;28;20049;-65
2021/05/29 03:08:16;;;;;;;24.15;15.25;;;10.10;99.90;;;;;;5090651;28;20051;-65
2021/05/29 03:10:44;;;;;;;21.85;15.88;;;10.10;99.90;;;;;;5081633;28;20041;-66
2021/05/29 03:13:11;;;;;;;21.73;15.23;;;10.10;99.90;;;;;;5084325;28;20040;-65
2021/05/29 03:15:37;;;;;;;22.05;14.63;;;10.10;99.90;;;;;;5084541;28;20064;-66
2021/05/29 03:18:05;;;;;;;21.85;14.32;;;10.10;99.90;;;;;;5084583;28;20047;-65
2021/05/29 03:20:32;;;;;;;28.08;15.40;;;10.10;99.90;;;;;;5084361;28;20052;-65
2021/05/29 03:22:59;;;;;;;22.23;14.95;;;10.10;99.90;;;;;;5082832;28;20040;-65
2021/05/29 03:25:25;;;;;;;23.55;14.57;;;10.10;99.90;;;;;;5075419;28;20179;-66
2021/05/29 03:27:53;;;;;;;20.85;14.68;;;10.10;99.90;;;;;;5083988;28;20052;-65
2021/05/29 03:30:27;;;;;;;20.23;15.00;;;10.20;99.90;;;;;;5084373;28;20076;-66
2021/05/29 03:32:55;;;;;;;23.30;15.38;;;10.20;99.90;;;;;;5085439;28;20048;-65
2021/05/29 03:35:22;;;;;;;26.08;15.25;;;10.20;99.90;;;;;;5084488;28;20048;-65
2021/05/29 03:37:48;;;;;;;22.27;15.07;;;10.30;99.90;;;;;;5084224;28;20040;-65
2021/05/29 03:40:16;;;;;;;21.65;14.45;;;10.30;99.90;;;;;;5068649;28;20041;-65
2021/05/29 03:42:42;;;;;;;20.70;14.23;;;10.30;99.90;;;;;;5084675;28;20538;-65
2021/05/29 03:45:12;;;;;;;23.60;15.70;;;10.30;99.90;;;;;;5088149;28;20040;-65
2021/05/29 03:47:39;;;;;;;22.25;14.32;;;10.30;99.90;;;;;;5078383;28;20094;-65
2021/05/29 03:50:06;;;;;;;23.85;15.10;;;10.30;99.90;;;;;;5084135;28;20087;-64
2021/05/29 03:52:32;;;;;;;19.45;13.40;;;10.40;99.90;;;;;;5081591;28;20053;-64
2021/05/29 03:54:58;;;;;;;20.90;14.52;;;10.30;99.90;;;;;;5083639;28;20044;-64
2021/05/29 03:57:24;;;;;;;20.85;15.93;;;10.30;99.90;;;;;;5086176;28;20040;-65
2021/05/29 03:59:50;;;;;;;24.65;15.75;;;10.30;99.90;;;;;;5085363;28;20086;-65
2021/05/29 04:02:16;;;;;;;20.55;15.80;;;10.40;99.90;;;;;;5085612;28;20055;-64
2021/05/29 04:04:41;;;;;;;28.42;16.20;;;10.40;99.90;;;;;;5081592;28;20040;-65
2021/05/29 04:07:07;;;;;;;23.20;15.55;;;10.40;99.90;;;;;;5088808;28;20041;-64
2021/05/29 04:09:33;;;;;;;23.17;15.13;;;10.50;99.90;;;;;;5087410;28;20040;-65
2021/05/29 04:11:59;;;;;;;25.05;15.95;;;10.50;99.90;;;;;;5079809;28;20068;-65
2021/05/29 04:14:25;;;;;;;23.65;16.45;;;10.50;99.90;;;;;;5073987;28;20091;-65
2021/05/29 04:16:51;;;;;;;24.25;16.00;;;10.50;99.90;;;;;;5087628;28;20045;-65
2021/05/29 04:19:16;;;;;;;24.92;15.18;;;10.60;99.90;;;;;;5074328;28;20045;-64
2021/05/29 04:21:42;;;;;;;27.60;16.35;;;10.60;99.90;;;;;;5074327;28;20071;-65
2021/05/29 04:24:08;;;;;;;24.33;15.30;;;10.70;99.90;;;;;;5060713;28;20399;-64
2021/05/29 04:26:35;;;;;;;22.45;14.90;;;10.70;99.90;;;;;;5087113;28;20063;-65
2021/05/29 04:29:01;;;;;;;22.95;15.60;;;10.80;99.90;;;;;;5072801;28;20045;-63
2021/05/29 04:31:27;;;;;;;22.55;15.15;;;10.80;99.90;;;;;;5079855;28;20041;-63
2021/05/29 04:33:52;;;;;;;23.00;15.35;;;10.90;99.90;;;;;;5080894;28;20037;-63
2021/05/29 04:36:18;;;;;;;23.60;14.23;;;10.90;99.90;;;;;;5072413;28;20047;-63
2021/05/29 04:38:44;;;;;;;22.58;15.68;;;11.00;99.90;;;;;;5081804;28;20045;-62
2021/05/29 04:41:10;;;;;;;20.02;14.30;;;11.00;99.90;;;;;;5077945;28;20060;-63
2021/05/29 04:43:36;;;;;;;20.90;14.43;;;11.00;99.90;;;;;;5086411;28;20040;-62
2021/05/29 04:46:02;;;;;;;24.92;15.77;;;11.00;99.90;;;;;;5087843;28;20056;-62
2021/05/29 04:48:27;;;;;;;19.65;13.52;;;11.10;99.90;;;;;;5069674;28;20052;-63
2021/05/29 04:51:12;;;;;;;26.23;15.18;;;11.10;99.90;;;;;;5085017;28;20041;-63
2021/05/29 04:53:48;;;;;;;18.10;14.27;;;11.10;99.90;;;;;;5058085;28;20045;-63
2021/05/29 04:56:15;;;;;;;20.63;15.23;;;11.20;99.90;;;;;;5086570;28;20070;-63
2021/05/29 04:58:42;;;;;;;21.60;16.08;;;11.20;99.90;;;;;;5083488;28;20074;-63
2021/05/29 05:01:09;;;;;;;18.98;14.98;;;11.20;99.90;;;;;;5075880;28;20052;-62
2021/05/29 05:03:36;;;;;;;23.55;15.10;;;11.30;99.90;;;;;;5087014;28;20090;-62
2021/05/29 05:06:03;;;;;;;20.48;14.73;;;11.20;99.90;;;;;;5087391;28;20054;-63
2021/05/29 05:08:28;;;;;;;25.00;16.05;;;11.20;99.90;;;;;;5096040;28;20051;-63
2021/05/29 05:10:55;;;;;;;23.08;14.77;;;11.30;99.90;;;;;;5083794;28;20098;-63
2021/05/29 05:13:23;;;;;;;23.75;14.18;;;11.30;99.90;;;;;;5085935;28;20049;-63
2021/05/29 05:15:50;;;;;;;24.75;16.13;;;11.30;99.90;;;;;;5086010;28;20489;-62
2021/05/29 05:18:16;;;;;;;22.13;15.02;;;11.40;99.90;;;;;;5086226;28;20099;-63
2021/05/29 05:20:42;;;;;;;22.63;15.32;;;11.50;99.90;;;;;;5085440;28;20066;-63
2021/05/29 05:23:08;;;;;;;21.30;14.65;;;11.40;99.90;;;;;;5085331;28;20048;-62
2021/05/29 05:25:35;;;;;;;26.70;15.32;;;11.40;99.90;;;;;;5085892;28;20040;-62
2021/05/29 05:28:01;;;;;;;23.42;15.73;;;11.40;99.90;;;;;;5085798;28;20052;-63
2021/05/29 05:30:27;;;;;;;20.45;14.32;;;11.50;99.90;;;;;;5085921;28;20090;-63
2021/05/29 05:33:04;;;;;;;23.15;15.15;;;11.50;99.90;;;;;;5086697;28;20045;-62
2021/05/29 05:35:30;;;;;;;23.20;15.40;;;11.50;99.90;;;;;;5086502;28;20104;-63
2021/05/29 05:37:56;;;;;;;20.77;16.35;;;11.50;99.90;;;;;;5082801;28;20045;-63
2021/05/29 05:40:22;;;;;;;24.77;15.40;;;11.50;99.90;;;;;;5077932;28;20505;-62
2021/05/29 05:42:48;;;;;;;18.27;14.30;;;11.50;99.90;;;;;;5083083;28;20056;-62
2021/05/29 05:45:15;;;;;;;21.83;15.73;;;11.50;99.90;;;;;;5085465;28;20055;-63
2021/05/29 05:47:41;;;;;;;23.08;15.30;;;11.50;99.90;;;;;;5086061;28;20048;-63
2021/05/29 05:50:09;;;;;;;22.33;15.05;;;11.60;99.90;;;;;;5085226;28;20048;-61
2021/05/29 05:52:36;;;;;;;24.23;15.55;;;11.60;99.90;;;;;;5067013;28;20075;-63
2021/05/29 05:55:03;;;;;;;21.77;14.90;;;11.60;99.90;;;;;;5084881;28;20076;-63
2021/05/29 05:57:29;;;;;;;23.02;14.77;;;11.70;99.90;;;;;;5084960;28;20044;-63
2021/05/29 05:59:55;;;;;;;19.08;14.23;;;11.70;99.90;;;;;;5078217;28;20053;-62
2021/05/29 06:02:20;;;;;;;22.98;14.95;;;11.70;99.90;;;;;;5084677;28;20044;-62
2021/05/29 06:04:46;;;;;;;20.92;14.48;;;11.80;99.90;;;;;;5084605;28;20075;-63
2021/05/29 06:07:12;;;;;;;26.55;15.15;;;11.80;99.90;;;;;;5085254;28;20079;-63
2021/05/29 06:09:38;;;;;;;20.55;13.85;;;11.90;99.90;;;;;;5080403;28;20036;-63
2021/05/29 06:12:04;;;;;;;26.50;15.75;;;11.90;99.90;;;;;;5084759;28;20063;-63
2021/05/29 06:20:01;;;;;;;22.38;14.18;;;12.00;99.90;;;;;;5084529;28;20108;-63
2021/05/29 06:22:27;;;;;;;20.35;15.57;;;12.00;99.90;;;;;;5077936;28;20103;-63
2021/05/29 06:24:53;;;;;;;18.90;13.80;;;12.00;99.90;;;;;;5067707;28;20508;-63
2021/05/29 06:27:20;;;;;;;21.02;14.57;;;12.00;99.90;;;;;;5079333;28;20037;-63
2021/05/29 06:29:45;;;;;;;20.73;14.35;;;12.00;99.90;;;;;;5085483;28;20131;-63
2021/05/29 06:32:13;;;;;;;23.90;14.48;;;12.00;99.90;;;;;;5084229;28;20112;-63
2021/05/29 06:34:40;;;;;;;20.58;14.50;;;12.00;99.90;;;;;;5071677;28;20041;-62
2021/05/29 06:37:07;;;;;;;20.83;14.15;;;12.00;99.90;;;;;;5084335;28;20049;-63
2021/05/29 06:39:33;;;;;;;21.98;14.45;;;12.00;99.90;;;;;;5081109;28;20048;-63
2021/05/29 06:41:59;;;;;;;16.05;12.85;;;12.10;99.90;;;;;;5085327;28;20041;-64
2021/05/29 06:44:24;;;;;;;20.77;14.48;;;12.20;99.90;;;;;;5085312;28;20054;-62
2021/05/29 06:46:50;;;;;;;20.80;14.43;;;12.20;99.90;;;;;;5084525;28;20474;-65
2021/05/29 06:49:19;;;;;;;16.83;12.98;;;12.40;99.90;;;;;;5084749;28;20059;-67
2021/05/29 06:52:01;;;;;;;16.27;12.50;;;12.40;99.90;;;;;;5085203;28;20123;-65
2021/05/29 06:58:37;;;;;;;16.20;12.52;;;12.30;99.90;;;;;;5084388;28;20090;-66
2021/05/29 07:00:00;;;;;;;20.65;12.57;;;12.40;99.90;;;;;;5077128;28;20128;-66
2021/05/29 07:02:26;;;;;;;16.60;12.52;;;12.50;99.90;;;;;;5066747;28;20040;-67
2021/05/29 07:04:52;;;;;;;18.05;12.32;;;12.50;99.90;;;;;;5084668;28;20044;-67
2021/05/29 07:07:18;;;;;;;16.02;11.40;;;12.60;99.90;;;;;;5087049;28;20047;-68
2021/05/29 07:09:44;;;;;;;19.05;12.70;;;12.70;99.90;;;;;;5075408;28;20053;-69
2021/05/29 07:12:10;;;;;;;17.00;11.57;;;12.80;99.90;;;;;;5081828;28;20108;-68
2021/05/29 07:14:36;;;;;;;17.75;11.57;;;12.90;99.90;;;;;;5088421;28;20067;-67
2021/05/29 07:17:04;;;;;;;16.77;11.45;;;12.90;99.90;;;;;;5089128;28;20036;-67
2021/05/29 07:19:30;;;;;;;17.60;11.85;;;12.90;99.90;;;;;;5088359;28;20104;-67
2021/05/29 07:21:56;;;;;;;19.23;11.45;;;13.00;99.90;;;;;;5087604;28;20039;-69
2021/05/29 07:24:22;;;;;;;14.25;9.63;;;13.00;99.90;;;;;;5087978;28;20145;-70
2021/05/29 07:26:49;;;;;;;11.98;8.55;;;13.20;99.90;;;;;;5087976;28;20051;-67
2021/05/29 07:29:16;;;;;;;12.57;9.60;;;13.40;99.90;;;;;;5088113;28;20094;-67
2021/05/29 07:31:43;;;;;;;13.40;8.60;;;13.40;99.90;;;;;;5088027;28;20514;-67
2021/05/29 07:34:09;;;;;;;12.57;9.30;;;13.50;99.90;;;;;;5070306;28;20052;-68
2021/05/29 07:36:35;;;;;;;12.25;8.60;;;13.50;99.90;;;;;;5078888;28;20048;-66
2021/05/29 07:39:02;;;;;;;12.07;8.38;;;13.50;99.90;;;;;;5088825;28;20048;-66
2021/05/29 07:41:27;;;;;;;10.95;8.05;;;13.50;99.90;;;;;;5079352;28;20048;-66
2021/05/29 07:43:53;;;;;;;11.52;8.45;;;13.60;99.90;;;;;;5088515;28;20051;-66
2021/05/29 07:46:19;;;;;;;13.20;8.18;;;13.60;99.90;;;;;;5088508;28;20032;-67
2021/05/29 07:48:46;;;;;;;13.82;8.88;;;13.70;99.90;;;;;;5070329;28;20052;-66
2021/05/29 07:51:12;;;;;;;11.45;7.93;;;13.80;99.90;;;;;;5079113;28;20098;-66
2021/05/29 07:53:40;;;;;;;11.10;7.60;;;13.90;99.90;;;;;;5081139;28;20055;-66
2021/05/29 07:56:09;;;;;;;11.68;7.95;;;13.90;99.90;;;;;;5087429;28;20048;-66
2021/05/29 07:58:35;;;;;;;12.60;7.97;;;14.10;99.90;;;;;;5087148;28;20085;-66
2021/05/29 08:01:02;;;;;;;11.20;8.05;;;14.10;99.90;;;;;;5087226;28;20041;-68
2021/05/29 08:03:31;;;;;;;11.30;7.13;;;14.10;99.90;;;;;;5087209;28;20047;-66
2021/05/29 08:05:57;;;;;;;13.55;8.63;;;14.10;99.90;;;;;;5081340;28;20072;-66
2021/05/29 08:08:25;;;;;;;10.23;7.47;;;14.20;99.90;;;;;;5081619;28;20040;-66
2021/05/29 08:10:53;;;;;;;10.88;7.30;;;14.20;99.90;;;;;;5079732;28;20101;-64
2021/05/29 08:13:20;;;;;;;11.57;7.32;;;14.20;99.90;;;;;;5087634;28;20064;-69
2021/05/29 08:15:47;;;;;;;55.78;21.70;;;14.30;99.90;;;;;;5088383;28;20037;-65
2021/05/29 08:18:16;;;;;;;13.07;8.02;;;14.40;99.90;;;;;;5087356;28;20041;-65
2021/05/29 08:20:46;;;;;;;8.75;7.13;;;14.50;99.90;;;;;;5069619;28;20068;-65
2021/05/29 08:23:12;;;;;;;11.23;6.90;;;14.50;99.90;;;;;;5083997;28;20036;-66
2021/05/29 08:25:38;;;;;;;12.07;8.07;;;14.50;99.90;;;;;;5085166;28;20063;-67
2021/05/29 08:28:04;;;;;;;23.35;11.15;;;14.60;99.90;;;;;;5087366;28;20040;-66
2021/05/29 08:30:31;;;;;;;12.85;8.50;;;14.50;99.90;;;;;;5087029;28;20055;-67
2021/05/29 08:32:57;;;;;;;13.35;8.15;;;14.60;99.90;;;;;;5086502;28;20045;-67
2021/05/29 08:35:23;;;;;;;11.68;8.52;;;14.70;99.90;;;;;;5086298;28;20100;-66
2021/05/29 08:37:49;;;;;;;36.95;14.82;;;14.70;99.90;;;;;;5084775;28;20049;-66
2021/05/29 08:40:18;;;;;;;10.35;6.43;;;14.90;99.90;;;;;;5078976;28;20068;-66
2021/05/29 08:42:45;;;;;;;29.77;12.10;;;15.00;99.90;;;;;;5086995;28;20071;-67
2021/05/29 08:45:13;;;;;;;12.10;7.25;;;15.00;99.90;;;;;;5086179;28;20071;-66
2021/05/29 08:47:39;;;;;;;17.95;10.05;;;15.10;99.90;;;;;;5087427;28;20040;-67
2021/05/29 08:50:06;;;;;;;23.60;9.82;;;15.20;99.90;;;;;;5087511;28;20060;-67
2021/05/29 08:52:36;;;;;;;7.97;5.28;;;15.20;99.90;;;;;;5082979;28;20045;-67
2021/05/29 08:55:08;;;;;;;7.82;5.22;;;15.20;99.90;;;;;;5087142;28;20074;-67
2021/05/29 08:57:35;;;;;;;7.40;5.70;;;15.20;99.90;;;;;;5087461;28;20070;-66
2021/05/29 09:00:00;;;;;;;8.98;5.82;;;15.00;99.90;;;;;;5082613;28;20044;-66
2021/05/29 09:02:28;;;;;;;9.77;6.22;;;15.00;99.90;;;;;;5087121;28;20040;-67
2021/05/29 09:05:02;;;;;;;7.78;5.72;;;15.10;99.90;;;;;;5087265;28;20130;-67
2021/05/29 09:07:28;;;;;;;10.25;6.07;;;15.10;99.90;;;;;;5082819;28;20041;-66
2021/05/29 09:10:21;;;;;;;9.35;6.70;;;15.00;99.90;;;;;;5080188;28;20048;-65
2021/05/29 09:13:06;;;;;;;9.25;5.55;;;14.90;99.90;;;;;;5083158;28;20067;-65
2021/05/29 09:15:43;;;;;;;9.30;5.72;;;14.90;99.90;;;;;;5074701;28;20040;-66
2021/05/29 09:18:45;;;;;;;7.78;5.93;;;14.90;99.90;;;;;;5085760;28;20492;-64
2021/05/29 09:21:20;;;;;;;8.60;6.60;;;14.90;99.90;;;;;;5085472;28;20053;-62
2021/05/29 09:23:48;;;;;;;9.15;5.63;;;15.00;99.90;;;;;;5073676;28;20072;-63
2021/05/29 09:26:14;;;;;;;8.88;5.97;;;15.10;99.90;;;;;;5085229;28;20041;-62
2021/05/29 09:28:43;;;;;;;11.00;6.13;;;15.20;99.90;;;;;;5085553;28;20086;-63
2021/05/29 09:31:14;;;;;;;7.22;5.25;;;15.30;99.90;;;;;;5086254;28;20071;-63
2021/05/29 09:33:45;;;;;;;8.77;6.20;;;15.50;99.90;;;;;;5085636;28;20049;-66
2021/05/29 09:36:14;;;;;;;8.70;5.95;;;15.60;99.90;;;;;;5084617;28;20048;-63
2021/05/29 09:38:43;;;;;;;7.97;5.78;;;15.70;99.90;;;;;;5086925;28;20040;-63
2021/05/29 09:41:30;;;;;;;11.70;6.95;;;15.80;99.90;;;;;;5077880;28;20044;-64
2021/05/29 09:44:05;;;;;;;10.43;5.10;;;16.00;99.90;;;;;;5085380;28;20063;-64
2021/05/29 09:46:50;;;;;;;8.00;6.07;;;16.20;99.90;;;;;;5085397;28;20040;-63
2021/05/29 09:49:16;;;;;;;9.70;7.18;;;16.40;99.90;;;;;;5085540;28;20496;-65
2021/05/29 09:51:41;;;;;;;10.45;7.38;;;16.50;99.90;;;;;;5086568;28;20058;-64
2021/05/29 09:54:10;;;;;;;9.90;7.07;;;16.60;99.90;;;;;;5085028;28;20043;-65
2021/05/29 09:56:41;;;;;;;12.48;7.20;;;16.60;99.90;;;;;;5084125;28;20036;-66
2021/05/29 09:59:12;;;;;;;11.93;7.53;;;16.60;99.90;;;;;;5085371;28;20051;-67
2021/05/29 10:01:45;;;;;;;10.02;6.57;;;16.60;99.90;;;;;;5082093;28;20489;-63
2021/05/29 10:04:13;;;;;;;12.10;7.32;;;16.60;99.90;;;;;;5084511;28;20044;-64
2021/05/29 10:06:39;;;;;;;10.13;6.88;;;16.70;99.90;;;;;;5086058;28;20042;-64
2021/05/29 10:09:06;;;;;;;9.43;6.47;;;16.70;99.90;;;;;;5086505;28;20049;-63
2021/05/29 10:11:35;;;;;;;10.70;7.05;;;16.70;99.90;;;;;;5083363;28;20058;-63
2021/05/29 10:14:03;;;;;;;9.10;6.07;;;16.70;99.90;;;;;;5084303;28;20059;-63
2021/05/29 10:16:31;;;;;;;10.05;6.53;;;16.70;99.90;;;;;;5085763;28;20114;-63
2021/05/29 10:19:01;;;;;;;9.45;7.85;;;16.70;99.90;;;;;;5085701;28;20106;-64
2021/05/29 10:21:30;;;;;;;8.23;6.55;;;16.70;99.90;;;;;;5067705;28;20048;-63
2021/05/29 10:23:58;;;;;;;11.68;7.22;;;16.80;99.90;;;;;;5083931;28;20048;-64
2021/05/29 10:26:26;;;;;;;9.43;6.20;;;16.70;99.90;;;;;;5085259;28;20123;-62
2021/05/29 10:28:53;;;;;;;11.25;6.35;;;16.60;99.90;;;;;;5084621;28;20045;-63
2021/05/29 10:31:20;;;;;;;9.52;6.68;;;16.40;99.90;;;;;;5078836;28;20058;-63
2021/05/29 10:33:46;;;;;;;10.13;6.68;;;16.40;99.90;;;;;;5081482;28;20041;-63
2021/05/29 10:36:35;;;;;;;9.80;6.60;;;16.40;99.90;;;;;;5081151;28;20096;-63
2021/05/29 10:39:03;;;;;;;12.85;7.68;;;16.50;99.90;;;;;;5075489;28;20045;-63
2021/05/29 10:41:52;;;;;;;12.07;7.90;;;16.50;99.90;;;;;;5076058;28;20049;-63
2021/05/29 10:44:36;;;;;;;10.40;6.97;;;16.70;99.90;;;;;;5084274;28;20109;-64
2021/05/29 10:47:15;;;;;;;10.32;6.57;;;16.80;99.90;;;;;;5077532;28;20045;-64
2021/05/29 10:49:46;;;;;;;8.30;6.40;;;17.00;99.90;;;;;;5067095;28;20048;-64
2021/05/29 10:52:41;;;;;;;12.85;7.30;;;17.20;99.90;;;;;;5082221;28;20051;-62
2021/05/29 10:55:16;;;;;;;16.27;6.95;;;17.20;99.90;;;;;;5077782;28;20221;-63
2021/05/29 10:57:52;;;;;;;9.60;6.88;;;17.30;99.90;;;;;;5072768;28;20044;-63
2021/05/29 11:00:38;;;;;;;8.70;6.57;;;17.40;99.90;;;;;;5069844;28;20115;-63
2021/05/29 11:03:16;;;;;;;8.98;6.65;;;17.30;99.90;;;;;;5079990;28;20041;-62
2021/05/29 11:05:45;;;;;;;7.70;6.72;;;17.40;99.90;;;;;;5076712;28;20066;-63
2021/05/29 11:08:30;;;;;;;;;;;17.40;99.90;;;;;;5090079;28;20047;-63
2021/05/29 11:10:56;;;;;;;9.38;6.57;;;17.40;99.90;;;;;;5082452;28;19980;-63
2021/05/29 11:14:07;;;;;;;8.55;6.45;;;17.50;99.90;;;;;;5078495;28;20060;-63
2021/05/29 11:16:54;;;;;;;6.82;5.22;;;17.40;99.90;;;;;;5021931;28;20185;-63
2021/05/29 11:19:21;;;;;;;8.18;5.68;;;17.30;99.90;;;;;;5022788;28;20088;-63
2021/05/29 11:22:08;;;;;;;7.68;6.03;;;17.50;99.90;;;;;;5023377;28;20514;-63
2021/05/29 11:24:35;;;;;;;7.88;5.65;;;17.70;99.90;;;;;;5016051;28;20188;-63
2021/05/29 11:27:06;;;;;;;7.68;5.85;;;17.80;99.90;;;;;;5022592;28;20073;-63
2021/05/29 11:29:51;;;;;;;9.63;6.45;;;17.90;99.90;;;;;;5021946;28;20050;-64
2021/05/29 11:32:40;;;;;;;8.90;5.50;;;18.20;99.90;;;;;;5021966;28;20053;-63
2021/05/29 11:35:06;;;;;;;8.50;5.63;;;18.30;99.90;;;;;;5021459;28;20069;-64
2021/05/29 11:37:34;;;;;;;8.60;6.15;;;18.30;99.90;;;;;;5022845;28;20069;-64
2021/05/29 11:39:59;;;;;;;6.72;5.13;;;18.40;99.90;;;;;;5022703;28;20069;-63
2021/05/29 11:42:25;;;;;;;9.07;6.07;;;18.40;99.90;;;;;;5013757;28;20062;-63
2021/05/29 11:44:51;;;;;;;7.75;5.78;;;18.40;99.90;;;;;;5022485;28;20552;-63
2021/05/29 11:47:17;;;;;;;7.57;5.10;;;18.40;99.90;;;;;;5021886;28;20084;-63
2021/05/29 11:49:44;;;;;;;6.57;4.97;;;18.30;99.90;;;;;;5021660;28;20110;-63
2021/05/29 11:52:10;;;;;;;7.13;4.97;;;18.30;99.90;;;;;;5028716;28;20060;-64
2021/05/29 11:54:37;;;;;;;8.30;5.28;;;18.30;99.90;;;;;;5078040;28;20054;-63
2021/05/29 11:57:05;;;;;;;7.70;5.88;;;18.30;99.90;;;;;;5082685;28;20047;-64
2021/05/29 11:59:32;;;;;;;8.25;5.63;;;18.40;99.90;;;;;;5085431;28;20048;-64
2021/05/29 12:01:58;;;;;;;8.07;5.57;;;18.40;99.90;;;;;;5088198;28;20565;-63
2021/05/29 12:04:27;;;;;;;8.27;5.63;;;18.50;99.90;;;;;;5088279;28;20048;-63
2021/05/29 12:06:57;;;;;;;6.88;5.13;;;18.60;99.90;;;;;;5087122;28;20123;-64
2021/05/29 12:09:27;;;;;;;7.88;5.65;;;18.60;99.90;;;;;;5074868;28;20112;-64
2021/05/29 12:11:55;;;;;;;7.10;5.70;;;18.70;99.90;;;;;;5085475;28;20072;-64
2021/05/29 12:14:33;;;;;;;9.35;5.45;;;18.80;99.90;;;;;;5088304;28;20036;-64
2021/05/29 12:17:07;;;;;;;9.10;6.10;;;18.90;99.90;;;;;;5087937;28;20049;-63
2021/05/29 12:19:42;;;;;;;6.97;5.40;;;18.90;99.90;;;;;;5088093;28;20405;-64
2021/05/29 12:22:15;;;;;;;7.30;5.38;;;19.00;99.90;;;;;;5087376;28;20040;-64
2021/05/29 12:24:42;;;;;;;6.57;5.32;;;19.00;99.90;;;;;;5083196;28;20052;-64
2021/05/29 12:27:16;;;;;;;7.03;5.82;;;19.10;99.90;;;;;;5087228;28;20051;-63
2021/05/29 12:29:42;;;;;;;8.45;5.50;;;19.00;99.90;;;;;;5088074;28;20051;-63
2021/05/29 12:32:10;;;;;;;7.90;5.32;;;18.90;99.90;;;;;;5087472;28;20040;-64
2021/05/29 12:34:48;;;;;;;6.63;5.20;;;18.90;99.90;;;;;;5087999;28;20051;-63
2021/05/29 12:37:16;;;;;;;8.43;5.95;;;19.00;99.90;;;;;;5086990;28;20047;-64
2021/05/29 12:39:54;;;;;;;9.02;5.85;;;19.10;99.90;;;;;;5088086;28;20052;-64
2021/05/29 12:42:24;;;;;;;8.82;5.72;;;19.10;99.90;;;;;;5067183;28;20101;-64
2021/05/29 12:44:56;;;;;;;7.22;5.10;;;19.10;99.90;;;;;;5087218;28;20582;-64
2021/05/29 12:47:24;;;;;;;7.68;5.90;;;19.30;99.90;;;;;;5086340;28;20039;-63
2021/05/29 12:49:52;;;;;;;8.15;6.03;;;19.40;99.90;;;;;;5085973;28;20072;-63
2021/05/29 12:52:33;;;;;;;8.63;6.25;;;19.30;99.90;;;;;;5086708;28;20060;-63